sensor_id;sensor_type;location;lat;lon;timestamp;P1;durP1;ratioP1;P2;durP2;ratioP2
19643;SDS011;9970;-36.854;174.870;2022-08-06T00:00:13;1.80;;;1.80;;
19643;SDS011;9970;-36.854;174.870;2022-08-06T00:02:47;1.80;;;1.80;;
19643;SDS011;9970;-36.854;174.870;2022-08-06T00:05:20;1.80;;;1.80;;
19643;SDS011;9970;-36.854;174.870;2022-08-06T00:07:54;1.80;;;1.80;;
19643;SDS011;9970;-36.854;174.870;2022-08-06T00:10:32;1.80;;;1.80;;
19643;SDS011;9970;-36.854;174.870;2022-08-06T00:13:07;1.80;;;1.80;;
19643;SDS011;9970;-36.854;174.870;2022-08-06T00:15:45;1.80;;;1.80;;
19643;SDS011;9970;-36.854;174.870;2022-08-06T00:18:19;1.80;;;1.80;;
19643;SDS011;9970;-36.854;174.870;2022-08-06T00:20:55;1.90;;;1.90;;
19643;SDS011;9970;-36.854;174.870;2022-08-06T00:23:27;1.83;;;1.83;;
19643;SDS011;9970;-36.854;174.870;2022-08-06T00:26:01;1.80;;;1.80;;
19643;SDS011;9970;-36.854;174.870;2022-08-06T00:28:35;2.00;;;2.00;;
19643;SDS011;9970;-36.854;174.870;2022-08-06T00:31:08;2.00;;;2.00;;
19643;SDS011;9970;-36.854;174.870;2022-08-06T00:33:41;1.80;;;1.80;;
19643;SDS011;9970;-36.854;174.870;2022-08-06T00:36:15;1.93;;;1.93;;
19643;SDS011;9970;-36.854;174.870;2022-08-06T00:38:50;2.00;;;2.00;;
19643;SDS011;9970;-36.854;174.870;2022-08-06T00:41:23;2.00;;;2.00;;
19643;SDS011;9970;-36.854;174.870;2022-08-06T00:43:58;2.10;;;2.10;;
19643;SDS011;9970;-36.854;174.870;2022-08-06T00:46:37;1.93;;;1.93;;
19643;SDS011;9970;-36.854;174.870;2022-08-06T00:49:11;2.00;;;2.00;;
19643;SDS011;9970;-36.854;174.870;2022-08-06T00:51:45;1.90;;;1.90;;
19643;SDS011;9970;-36.854;174.870;2022-08-06T00:54:19;1.90;;;1.90;;
19643;SDS011;9970;-36.854;174.870;2022-08-06T00:56:53;2.00;;;2.00;;
19643;SDS011;9970;-36.854;174.870;2022-08-06T00:59:26;2.10;;;2.10;;
19643;SDS011;9970;-36.854;174.870;2022-08-06T01:02:00;2.17;;;2.17;;
19643;SDS011;9970;-36.854;174.870;2022-08-06T01:04:34;2.40;;;2.40;;
19643;SDS011;9970;-36.854;174.870;2022-08-06T01:07:08;2.20;;;2.20;;
19643;SDS011;9970;-36.854;174.870;2022-08-06T01:09:42;2.20;;;2.20;;
19643;SDS011;9970;-36.854;174.870;2022-08-06T01:12:16;2.00;;;2.00;;
19643;SDS011;9970;-36.854;174.870;2022-08-06T01:14:53;2.10;;;2.10;;
19643;SDS011;9970;-36.854;174.870;2022-08-06T01:17:33;2.20;;;2.20;;
19643;SDS011;9970;-36.854;174.870;2022-08-06T01:22:56;2.10;;;2.10;;
19643;SDS011;9970;-36.854;174.870;2022-08-06T01:25:56;2.57;;;2.57;;
19643;SDS011;9970;-36.854;174.870;2022-08-06T01:31:13;2.10;;;2.10;;
19643;SDS011;9970;-36.854;174.870;2022-08-06T01:33:46;2.10;;;2.10;;
19643;SDS011;9970;-36.854;174.870;2022-08-06T01:36:27;2.10;;;2.10;;
19643;SDS011;9970;-36.854;174.870;2022-08-06T01:39:03;2.10;;;2.10;;
19643;SDS011;9970;-36.854;174.870;2022-08-06T01:41:39;2.20;;;2.20;;
19643;SDS011;9970;-36.854;174.870;2022-08-06T01:44:15;2.30;;;2.30;;
19643;SDS011;9970;-36.854;174.870;2022-08-06T01:46:51;2.30;;;2.30;;
19643;SDS011;9970;-36.854;174.870;2022-08-06T01:49:33;2.10;;;2.10;;
19643;SDS011;9970;-36.854;174.870;2022-08-06T01:52:08;2.10;;;2.10;;
19643;SDS011;9970;-36.854;174.870;2022-08-06T01:54:43;2.00;;;2.00;;
19643;SDS011;9970;-36.854;174.870;2022-08-06T01:57:19;2.00;;;2.00;;
19643;SDS011;9970;-36.854;174.870;2022-08-06T01:59:55;2.00;;;2.00;;
19643;SDS011;9970;-36.854;174.870;2022-08-06T02:02:34;2.00;;;2.00;;
19643;SDS011;9970;-36.854;174.870;2022-08-06T02:05:08;2.10;;;2.10;;
19643;SDS011;9970;-36.854;174.870;2022-08-06T02:07:43;2.20;;;2.20;;
19643;SDS011;9970;-36.854;174.870;2022-08-06T02:10:19;2.20;;;2.20;;
19643;SDS011;9970;-36.854;174.870;2022-08-06T02:12:53;2.10;;;2.10;;
19643;SDS011;9970;-36.854;174.870;2022-08-06T02:15:27;2.00;;;2.00;;
19643;SDS011;9970;-36.854;174.870;2022-08-06T02:18:05;1.90;;;1.90;;
19643;SDS011;9970;-36.854;174.870;2022-08-06T02:20:41;2.20;;;2.20;;
19643;SDS011;9970;-36.854;174.870;2022-08-06T02:23:16;1.90;;;1.90;;
19643;SDS011;9970;-36.854;174.870;2022-08-06T02:25:51;2.00;;;2.00;;
19643;SDS011;9970;-36.854;174.870;2022-08-06T02:28:26;1.90;;;1.90;;
19643;SDS011;9970;-36.854;174.870;2022-08-06T02:31:00;2.00;;;2.00;;
19643;SDS011;9970;-36.854;174.870;2022-08-06T02:33:35;2.03;;;2.03;;
19643;SDS011;9970;-36.854;174.870;2022-08-06T02:36:17;1.80;;;1.80;;
19643;SDS011;9970;-36.854;174.870;2022-08-06T02:39:13;1.90;;;1.90;;
19643;SDS011;9970;-36.854;174.870;2022-08-06T02:41:43;1.90;;;1.90;;
19643;SDS011;9970;-36.854;174.870;2022-08-06T02:44:20;1.90;;;1.90;;
19643;SDS011;9970;-36.854;174.870;2022-08-06T02:46:56;2.00;;;2.00;;
19643;SDS011;9970;-36.854;174.870;2022-08-06T02:49:29;1.97;;;1.97;;
19643;SDS011;9970;-36.854;174.870;2022-08-06T02:52:05;2.00;;;2.00;;
19643;SDS011;9970;-36.854;174.870;2022-08-06T02:54:42;2.00;;;2.00;;
19643;SDS011;9970;-36.854;174.870;2022-08-06T02:57:23;2.07;;;2.07;;
19643;SDS011;9970;-36.854;174.870;2022-08-06T03:00:04;2.00;;;2.00;;
19643;SDS011;9970;-36.854;174.870;2022-08-06T03:02:35;2.00;;;2.00;;
19643;SDS011;9970;-36.854;174.870;2022-08-06T03:05:13;2.10;;;2.10;;
19643;SDS011;9970;-36.854;174.870;2022-08-06T03:07:47;2.10;;;2.10;;
19643;SDS011;9970;-36.854;174.870;2022-08-06T03:10:22;2.00;;;2.00;;
19643;SDS011;9970;-36.854;174.870;2022-08-06T03:12:57;2.20;;;2.20;;
19643;SDS011;9970;-36.854;174.870;2022-08-06T03:15:33;2.03;;;2.03;;
19643;SDS011;9970;-36.854;174.870;2022-08-06T03:18:07;2.20;;;2.20;;
19643;SDS011;9970;-36.854;174.870;2022-08-06T03:20:42;1.97;;;1.97;;
19643;SDS011;9970;-36.854;174.870;2022-08-06T03:23:16;2.00;;;2.00;;
19643;SDS011;9970;-36.854;174.870;2022-08-06T03:25:51;2.00;;;2.00;;
19643;SDS011;9970;-36.854;174.870;2022-08-06T03:28:31;1.90;;;1.90;;
19643;SDS011;9970;-36.854;174.870;2022-08-06T03:31:08;1.90;;;1.90;;
19643;SDS011;9970;-36.854;174.870;2022-08-06T03:33:42;2.00;;;2.00;;
19643;SDS011;9970;-36.854;174.870;2022-08-06T03:36:17;1.90;;;1.90;;
19643;SDS011;9970;-36.854;174.870;2022-08-06T03:38:56;2.00;;;2.00;;
19643;SDS011;9970;-36.854;174.870;2022-08-06T03:41:32;2.00;;;2.00;;
19643;SDS011;9970;-36.854;174.870;2022-08-06T03:44:06;1.90;;;1.90;;
19643;SDS011;9970;-36.854;174.870;2022-08-06T03:46:43;2.00;;;2.00;;
19643;SDS011;9970;-36.854;174.870;2022-08-06T03:49:29;1.90;;;1.90;;
19643;SDS011;9970;-36.854;174.870;2022-08-06T03:52:00;2.00;;;2.00;;
19643;SDS011;9970;-36.854;174.870;2022-08-06T03:54:36;2.00;;;2.00;;
19643;SDS011;9970;-36.854;174.870;2022-08-06T03:57:13;1.90;;;1.90;;
19643;SDS011;9970;-36.854;174.870;2022-08-06T03:59:48;2.00;;;2.00;;
19643;SDS011;9970;-36.854;174.870;2022-08-06T04:02:23;1.80;;;1.80;;
19643;SDS011;9970;-36.854;174.870;2022-08-06T04:05:02;1.80;;;1.80;;
19643;SDS011;9970;-36.854;174.870;2022-08-06T04:07:39;1.93;;;1.93;;
19643;SDS011;9970;-36.854;174.870;2022-08-06T04:10:14;2.00;;;2.00;;
19643;SDS011;9970;-36.854;174.870;2022-08-06T04:12:49;2.00;;;2.00;;
19643;SDS011;9970;-36.854;174.870;2022-08-06T04:15:24;2.00;;;2.00;;
19643;SDS011;9970;-36.854;174.870;2022-08-06T04:17:58;1.80;;;1.80;;
19643;SDS011;9970;-36.854;174.870;2022-08-06T04:20:31;1.70;;;1.70;;
19643;SDS011;9970;-36.854;174.870;2022-08-06T04:23:07;1.70;;;1.70;;
19643;SDS011;9970;-36.854;174.870;2022-08-06T04:25:42;1.60;;;1.60;;
19643;SDS011;9970;-36.854;174.870;2022-08-06T04:28:20;1.70;;;1.70;;
19643;SDS011;9970;-36.854;174.870;2022-08-06T04:30:55;1.60;;;1.60;;
19643;SDS011;9970;-36.854;174.870;2022-08-06T04:33:31;1.60;;;1.60;;
19643;SDS011;9970;-36.854;174.870;2022-08-06T04:36:07;1.70;;;1.70;;
19643;SDS011;9970;-36.854;174.870;2022-08-06T04:38:43;1.60;;;1.60;;
19643;SDS011;9970;-36.854;174.870;2022-08-06T04:41:17;1.60;;;1.60;;
19643;SDS011;9970;-36.854;174.870;2022-08-06T04:43:50;1.93;;;1.93;;
19643;SDS011;9970;-36.854;174.870;2022-08-06T04:46:28;1.60;;;1.60;;
19643;SDS011;9970;-36.854;174.870;2022-08-06T04:49:03;1.83;;;1.83;;
19643;SDS011;9970;-36.854;174.870;2022-08-06T04:51:52;1.50;;;1.50;;
19643;SDS011;9970;-36.854;174.870;2022-08-06T04:54:26;1.50;;;1.50;;
19643;SDS011;9970;-36.854;174.870;2022-08-06T04:57:00;1.50;;;1.50;;
19643;SDS011;9970;-36.854;174.870;2022-08-06T04:59:34;1.50;;;1.50;;
19643;SDS011;9970;-36.854;174.870;2022-08-06T05:02:08;1.50;;;1.50;;
19643;SDS011;9970;-36.854;174.870;2022-08-06T05:04:41;1.50;;;1.50;;
19643;SDS011;9970;-36.854;174.870;2022-08-06T05:07:18;1.50;;;1.50;;
19643;SDS011;9970;-36.854;174.870;2022-08-06T05:09:53;1.50;;;1.50;;
19643;SDS011;9970;-36.854;174.870;2022-08-06T05:15:50;1.50;;;1.50;;
19643;SDS011;9970;-36.854;174.870;2022-08-06T05:18:06;1.60;;;1.60;;
19643;SDS011;9970;-36.854;174.870;2022-08-06T05:20:37;1.50;;;1.50;;
19643;SDS011;9970;-36.854;174.870;2022-08-06T05:23:14;1.60;;;1.60;;
19643;SDS011;9970;-36.854;174.870;2022-08-06T05:25:54;1.50;;;1.50;;
19643;SDS011;9970;-36.854;174.870;2022-08-06T05:28:28;1.60;;;1.60;;
19643;SDS011;9970;-36.854;174.870;2022-08-06T05:31:02;1.60;;;1.60;;
19643;SDS011;9970;-36.854;174.870;2022-08-06T05:33:36;1.50;;;1.50;;
19643;SDS011;9970;-36.854;174.870;2022-08-06T05:36:10;1.60;;;1.60;;
19643;SDS011;9970;-36.854;174.870;2022-08-06T05:38:44;1.50;;;1.50;;
19643;SDS011;9970;-36.854;174.870;2022-08-06T05:41:18;1.50;;;1.50;;
19643;SDS011;9970;-36.854;174.870;2022-08-06T05:43:52;1.50;;;1.50;;
19643;SDS011;9970;-36.854;174.870;2022-08-06T05:46:27;1.50;;;1.50;;
19643;SDS011;9970;-36.854;174.870;2022-08-06T05:49:46;1.50;;;1.50;;
19643;SDS011;9970;-36.854;174.870;2022-08-06T05:51:51;1.47;;;1.47;;
19643;SDS011;9970;-36.854;174.870;2022-08-06T05:54:33;1.50;;;1.50;;
19643;SDS011;9970;-36.854;174.870;2022-08-06T05:57:09;1.60;;;1.60;;
19643;SDS011;9970;-36.854;174.870;2022-08-06T05:59:56;1.50;;;1.50;;
19643;SDS011;9970;-36.854;174.870;2022-08-06T06:02:27;1.50;;;1.50;;
19643;SDS011;9970;-36.854;174.870;2022-08-06T06:05:02;1.50;;;1.50;;
19643;SDS011;9970;-36.854;174.870;2022-08-06T06:07:38;1.50;;;1.50;;
19643;SDS011;9970;-36.854;174.870;2022-08-06T06:10:12;1.57;;;1.57;;
19643;SDS011;9970;-36.854;174.870;2022-08-06T06:12:47;1.50;;;1.50;;
19643;SDS011;9970;-36.854;174.870;2022-08-06T06:15:21;1.50;;;1.50;;
19643;SDS011;9970;-36.854;174.870;2022-08-06T06:18:03;1.50;;;1.50;;
19643;SDS011;9970;-36.854;174.870;2022-08-06T06:37:37;1.50;;;1.50;;
19643;SDS011;9970;-36.854;174.870;2022-08-06T06:40:12;1.50;;;1.50;;
19643;SDS011;9970;-36.854;174.870;2022-08-06T06:42:58;1.60;;;1.60;;
19643;SDS011;9970;-36.854;174.870;2022-08-06T06:45:42;1.50;;;1.50;;
19643;SDS011;9970;-36.854;174.870;2022-08-06T06:48:19;1.40;;;1.40;;
19643;SDS011;9970;-36.854;174.870;2022-08-06T06:51:18;1.50;;;1.50;;
19643;SDS011;9970;-36.854;174.870;2022-08-06T06:53:45;1.50;;;1.50;;
19643;SDS011;9970;-36.854;174.870;2022-08-06T06:56:21;1.40;;;1.40;;
19643;SDS011;9970;-36.854;174.870;2022-08-06T06:59:04;1.50;;;1.50;;
19643;SDS011;9970;-36.854;174.870;2022-08-06T07:01:38;1.50;;;1.50;;
19643;SDS011;9970;-36.854;174.870;2022-08-06T07:04:13;1.50;;;1.50;;
19643;SDS011;9970;-36.854;174.870;2022-08-06T07:06:53;1.50;;;1.50;;
19643;SDS011;9970;-36.854;174.870;2022-08-06T07:09:28;1.50;;;1.50;;
19643;SDS011;9970;-36.854;174.870;2022-08-06T07:12:04;1.50;;;1.50;;
19643;SDS011;9970;-36.854;174.870;2022-08-06T07:14:40;1.50;;;1.50;;
19643;SDS011;9970;-36.854;174.870;2022-08-06T07:17:15;1.50;;;1.50;;
19643;SDS011;9970;-36.854;174.870;2022-08-06T07:19:53;1.57;;;1.57;;
19643;SDS011;9970;-36.854;174.870;2022-08-06T07:22:26;1.50;;;1.50;;
19643;SDS011;9970;-36.854;174.870;2022-08-06T07:25:00;1.43;;;1.43;;
19643;SDS011;9970;-36.854;174.870;2022-08-06T07:27:38;1.40;;;1.40;;
19643;SDS011;9970;-36.854;174.870;2022-08-06T07:30:12;1.40;;;1.40;;
19643;SDS011;9970;-36.854;174.870;2022-08-06T07:32:48;1.40;;;1.40;;
19643;SDS011;9970;-36.854;174.870;2022-08-06T07:35:21;1.60;;;1.60;;
19643;SDS011;9970;-36.854;174.870;2022-08-06T07:37:56;1.40;;;1.40;;
19643;SDS011;9970;-36.854;174.870;2022-08-06T07:40:45;1.30;;;1.30;;
19643;SDS011;9970;-36.854;174.870;2022-08-06T07:43:27;1.40;;;1.40;;
19643;SDS011;9970;-36.854;174.870;2022-08-06T07:46:04;1.40;;;1.40;;
19643;SDS011;9970;-36.854;174.870;2022-08-06T07:48:44;1.30;;;1.30;;
19643;SDS011;9970;-36.854;174.870;2022-08-06T07:51:20;1.30;;;1.30;;
19643;SDS011;9970;-36.854;174.870;2022-08-06T07:53:55;1.40;;;1.40;;
19643;SDS011;9970;-36.854;174.870;2022-08-06T07:56:30;1.30;;;1.30;;
19643;SDS011;9970;-36.854;174.870;2022-08-06T07:59:05;1.37;;;1.37;;
19643;SDS011;9970;-36.854;174.870;2022-08-06T08:01:40;1.40;;;1.40;;
19643;SDS011;9970;-36.854;174.870;2022-08-06T08:04:16;1.40;;;1.40;;
19643;SDS011;9970;-36.854;174.870;2022-08-06T08:07:08;1.30;;;1.30;;
19643;SDS011;9970;-36.854;174.870;2022-08-06T08:09:41;1.40;;;1.40;;
19643;SDS011;9970;-36.854;174.870;2022-08-06T08:12:17;1.30;;;1.30;;
19643;SDS011;9970;-36.854;174.870;2022-08-06T08:14:52;1.30;;;1.30;;
19643;SDS011;9970;-36.854;174.870;2022-08-06T08:17:27;1.30;;;1.30;;
19643;SDS011;9970;-36.854;174.870;2022-08-06T08:20:10;1.30;;;1.30;;
19643;SDS011;9970;-36.854;174.870;2022-08-06T08:22:40;1.40;;;1.40;;
19643;SDS011;9970;-36.854;174.870;2022-08-06T08:25:15;1.40;;;1.40;;
19643;SDS011;9970;-36.854;174.870;2022-08-06T08:27:49;1.40;;;1.40;;
19643;SDS011;9970;-36.854;174.870;2022-08-06T08:30:24;1.50;;;1.50;;
19643;SDS011;9970;-36.854;174.870;2022-08-06T08:32:58;1.40;;;1.40;;
19643;SDS011;9970;-36.854;174.870;2022-08-06T08:35:37;1.60;;;1.60;;
19643;SDS011;9970;-36.854;174.870;2022-08-06T08:38:11;1.43;;;1.43;;
19643;SDS011;9970;-36.854;174.870;2022-08-06T08:40:44;1.50;;;1.50;;
19643;SDS011;9970;-36.854;174.870;2022-08-06T08:44:22;1.50;;;1.50;;
19643;SDS011;9970;-36.854;174.870;2022-08-06T08:46:07;1.50;;;1.50;;
19643;SDS011;9970;-36.854;174.870;2022-08-06T08:48:40;1.40;;;1.40;;
19643;SDS011;9970;-36.854;174.870;2022-08-06T08:51:14;1.47;;;1.47;;
19643;SDS011;9970;-36.854;174.870;2022-08-06T08:53:51;1.50;;;1.50;;
19643;SDS011;9970;-36.854;174.870;2022-08-06T08:56:24;1.50;;;1.50;;
19643;SDS011;9970;-36.854;174.870;2022-08-06T08:59:00;1.50;;;1.50;;
19643;SDS011;9970;-36.854;174.870;2022-08-06T09:01:35;1.50;;;1.50;;
19643;SDS011;9970;-36.854;174.870;2022-08-06T09:04:11;1.50;;;1.50;;
19643;SDS011;9970;-36.854;174.870;2022-08-06T09:06:45;1.50;;;1.50;;
19643;SDS011;9970;-36.854;174.870;2022-08-06T09:09:18;1.43;;;1.43;;
19643;SDS011;9970;-36.854;174.870;2022-08-06T09:11:52;1.50;;;1.50;;
19643;SDS011;9970;-36.854;174.870;2022-08-06T09:14:28;1.50;;;1.50;;
19643;SDS011;9970;-36.854;174.870;2022-08-06T09:17:04;1.50;;;1.50;;
19643;SDS011;9970;-36.854;174.870;2022-08-06T09:19:39;1.40;;;1.40;;
19643;SDS011;9970;-36.854;174.870;2022-08-06T09:22:14;1.40;;;1.40;;
19643;SDS011;9970;-36.854;174.870;2022-08-06T09:24:48;1.63;;;1.63;;
19643;SDS011;9970;-36.854;174.870;2022-08-06T09:27:21;1.40;;;1.40;;
19643;SDS011;9970;-36.854;174.870;2022-08-06T09:29:59;1.40;;;1.40;;
19643;SDS011;9970;-36.854;174.870;2022-08-06T09:32:44;1.40;;;1.40;;
19643;SDS011;9970;-36.854;174.870;2022-08-06T09:35:20;1.37;;;1.37;;
19643;SDS011;9970;-36.854;174.870;2022-08-06T09:38:00;1.40;;;1.40;;
19643;SDS011;9970;-36.854;174.870;2022-08-06T09:40:38;1.40;;;1.40;;
19643;SDS011;9970;-36.854;174.870;2022-08-06T09:43:21;1.30;;;1.30;;
19643;SDS011;9970;-36.854;174.870;2022-08-06T09:45:47;1.40;;;1.40;;
19643;SDS011;9970;-36.854;174.870;2022-08-06T09:48:21;1.40;;;1.40;;
19643;SDS011;9970;-36.854;174.870;2022-08-06T09:50:56;1.60;;;1.60;;
19643;SDS011;9970;-36.854;174.870;2022-08-06T09:53:29;1.40;;;1.40;;
19643;SDS011;9970;-36.854;174.870;2022-08-06T09:56:07;1.40;;;1.40;;
19643;SDS011;9970;-36.854;174.870;2022-08-06T09:58:39;1.40;;;1.40;;
19643;SDS011;9970;-36.854;174.870;2022-08-06T10:01:23;1.50;;;1.50;;
19643;SDS011;9970;-36.854;174.870;2022-08-06T10:03:54;1.40;;;1.40;;
19643;SDS011;9970;-36.854;174.870;2022-08-06T10:06:29;1.50;;;1.50;;
19643;SDS011;9970;-36.854;174.870;2022-08-06T10:09:10;1.50;;;1.50;;
19643;SDS011;9970;-36.854;174.870;2022-08-06T10:11:45;1.40;;;1.40;;
19643;SDS011;9970;-36.854;174.870;2022-08-06T10:14:33;1.50;;;1.50;;
19643;SDS011;9970;-36.854;174.870;2022-08-06T10:19:47;1.50;;;1.50;;
19643;SDS011;9970;-36.854;174.870;2022-08-06T10:22:51;1.50;;;1.50;;
19643;SDS011;9970;-36.854;174.870;2022-08-06T10:25:29;1.50;;;1.50;;
19643;SDS011;9970;-36.854;174.870;2022-08-06T10:28:07;1.60;;;1.60;;
19643;SDS011;9970;-36.854;174.870;2022-08-06T10:30:42;1.50;;;1.50;;
19643;SDS011;9970;-36.854;174.870;2022-08-06T10:33:16;1.60;;;1.60;;
19643;SDS011;9970;-36.854;174.870;2022-08-06T10:35:58;1.60;;;1.60;;
19643;SDS011;9970;-36.854;174.870;2022-08-06T10:38:30;1.50;;;1.50;;
19643;SDS011;9970;-36.854;174.870;2022-08-06T10:41:06;1.50;;;1.50;;
19643;SDS011;9970;-36.854;174.870;2022-08-06T10:43:41;1.70;;;1.70;;
19643;SDS011;9970;-36.854;174.870;2022-08-06T10:46:15;1.70;;;1.70;;
19643;SDS011;9970;-36.854;174.870;2022-08-06T10:48:50;1.70;;;1.70;;
19643;SDS011;9970;-36.854;174.870;2022-08-06T10:51:25;1.70;;;1.70;;
19643;SDS011;9970;-36.854;174.870;2022-08-06T10:54:00;1.70;;;1.70;;
19643;SDS011;9970;-36.854;174.870;2022-08-06T10:56:34;1.70;;;1.70;;
19643;SDS011;9970;-36.854;174.870;2022-08-06T10:59:09;1.60;;;1.60;;
19643;SDS011;9970;-36.854;174.870;2022-08-06T11:01:47;1.60;;;1.60;;
19643;SDS011;9970;-36.854;174.870;2022-08-06T11:10:30;1.60;;;1.60;;
19643;SDS011;9970;-36.854;174.870;2022-08-06T11:13:26;1.60;;;1.60;;
19643;SDS011;9970;-36.854;174.870;2022-08-06T11:16:27;1.60;;;1.60;;
19643;SDS011;9970;-36.854;174.870;2022-08-06T11:19:06;1.60;;;1.60;;
19643;SDS011;9970;-36.854;174.870;2022-08-06T11:21:42;1.70;;;1.70;;
19643;SDS011;9970;-36.854;174.870;2022-08-06T11:24:16;1.70;;;1.70;;
19643;SDS011;9970;-36.854;174.870;2022-08-06T11:26:49;1.60;;;1.60;;
19643;SDS011;9970;-36.854;174.870;2022-08-06T11:29:23;1.60;;;1.60;;
19643;SDS011;9970;-36.854;174.870;2022-08-06T11:31:57;1.70;;;1.70;;
19643;SDS011;9970;-36.854;174.870;2022-08-06T11:34:48;1.60;;;1.60;;
19643;SDS011;9970;-36.854;174.870;2022-08-06T11:37:21;1.80;;;1.80;;
19643;SDS011;9970;-36.854;174.870;2022-08-06T11:40:12;1.60;;;1.60;;
19643;SDS011;9970;-36.854;174.870;2022-08-06T11:42:41;1.60;;;1.60;;
19643;SDS011;9970;-36.854;174.870;2022-08-06T11:45:17;1.70;;;1.70;;
19643;SDS011;9970;-36.854;174.870;2022-08-06T11:48:03;1.50;;;1.50;;
19643;SDS011;9970;-36.854;174.870;2022-08-06T11:50:27;1.70;;;1.70;;
19643;SDS011;9970;-36.854;174.870;2022-08-06T11:53:06;1.70;;;1.70;;
19643;SDS011;9970;-36.854;174.870;2022-08-06T11:56:09;1.60;;;1.60;;
19643;SDS011;9970;-36.854;174.870;2022-08-06T11:59:11;1.70;;;1.70;;
19643;SDS011;9970;-36.854;174.870;2022-08-06T12:01:45;1.60;;;1.60;;
19643;SDS011;9970;-36.854;174.870;2022-08-06T12:12:51;1.70;;;1.70;;
19643;SDS011;9970;-36.854;174.870;2022-08-06T12:18:07;1.70;;;1.70;;
19643;SDS011;9970;-36.854;174.870;2022-08-06T12:20:41;1.80;;;1.80;;
19643;SDS011;9970;-36.854;174.870;2022-08-06T12:23:16;2.03;;;2.03;;
19643;SDS011;9970;-36.854;174.870;2022-08-06T12:25:53;1.70;;;1.70;;
19643;SDS011;9970;-36.854;174.870;2022-08-06T12:28:30;1.80;;;1.80;;
19643;SDS011;9970;-36.854;174.870;2022-08-06T12:31:03;1.80;;;1.80;;
19643;SDS011;9970;-36.854;174.870;2022-08-06T12:33:41;1.70;;;1.70;;
19643;SDS011;9970;-36.854;174.870;2022-08-06T12:36:14;1.80;;;1.80;;
19643;SDS011;9970;-36.854;174.870;2022-08-06T12:38:58;1.70;;;1.70;;
19643;SDS011;9970;-36.854;174.870;2022-08-06T12:41:34;1.67;;;1.67;;
19643;SDS011;9970;-36.854;174.870;2022-08-06T12:44:10;1.70;;;1.70;;
19643;SDS011;9970;-36.854;174.870;2022-08-06T12:46:44;1.90;;;1.90;;
19643;SDS011;9970;-36.854;174.870;2022-08-06T12:49:28;1.80;;;1.80;;
19643;SDS011;9970;-36.854;174.870;2022-08-06T12:52:10;1.70;;;1.70;;
19643;SDS011;9970;-36.854;174.870;2022-08-06T12:54:47;1.70;;;1.70;;
19643;SDS011;9970;-36.854;174.870;2022-08-06T12:57:21;1.77;;;1.77;;
19643;SDS011;9970;-36.854;174.870;2022-08-06T12:59:56;1.70;;;1.70;;
19643;SDS011;9970;-36.854;174.870;2022-08-06T13:02:34;1.67;;;1.67;;
19643;SDS011;9970;-36.854;174.870;2022-08-06T13:05:08;1.70;;;1.70;;
19643;SDS011;9970;-36.854;174.870;2022-08-06T13:07:41;1.70;;;1.70;;
19643;SDS011;9970;-36.854;174.870;2022-08-06T13:10:15;1.70;;;1.70;;
19643;SDS011;9970;-36.854;174.870;2022-08-06T13:12:57;1.60;;;1.60;;
19643;SDS011;9970;-36.854;174.870;2022-08-06T13:15:28;1.60;;;1.60;;
19643;SDS011;9970;-36.854;174.870;2022-08-06T13:18:10;1.50;;;1.50;;
19643;SDS011;9970;-36.854;174.870;2022-08-06T13:20:42;1.60;;;1.60;;
19643;SDS011;9970;-36.854;174.870;2022-08-06T13:23:28;1.60;;;1.60;;
19643;SDS011;9970;-36.854;174.870;2022-08-06T13:26:11;1.60;;;1.60;;
19643;SDS011;9970;-36.854;174.870;2022-08-06T13:29:06;1.70;;;1.70;;
19643;SDS011;9970;-36.854;174.870;2022-08-06T13:31:56;1.60;;;1.60;;
19643;SDS011;9970;-36.854;174.870;2022-08-06T13:34:46;1.60;;;1.60;;
19643;SDS011;9970;-36.854;174.870;2022-08-06T13:40:15;1.60;;;1.60;;
19643;SDS011;9970;-36.854;174.870;2022-08-06T13:42:50;1.70;;;1.70;;
19643;SDS011;9970;-36.854;174.870;2022-08-06T13:45:25;1.70;;;1.70;;
19643;SDS011;9970;-36.854;174.870;2022-08-06T13:48:06;1.70;;;1.70;;
19643;SDS011;9970;-36.854;174.870;2022-08-06T13:50:44;1.70;;;1.70;;
19643;SDS011;9970;-36.854;174.870;2022-08-06T13:53:17;1.63;;;1.63;;
19643;SDS011;9970;-36.854;174.870;2022-08-06T13:55:51;1.60;;;1.60;;
19643;SDS011;9970;-36.854;174.870;2022-08-06T13:58:25;1.70;;;1.70;;
19643;SDS011;9970;-36.854;174.870;2022-08-06T14:01:04;1.70;;;1.70;;
19643;SDS011;9970;-36.854;174.870;2022-08-06T14:03:37;1.60;;;1.60;;
19643;SDS011;9970;-36.854;174.870;2022-08-06T14:06:12;1.67;;;1.67;;
19643;SDS011;9970;-36.854;174.870;2022-08-06T14:08:46;1.70;;;1.70;;
19643;SDS011;9970;-36.854;174.870;2022-08-06T14:11:19;1.80;;;1.80;;
19643;SDS011;9970;-36.854;174.870;2022-08-06T14:13:53;1.67;;;1.67;;
19643;SDS011;9970;-36.854;174.870;2022-08-06T14:16:26;1.70;;;1.70;;
19643;SDS011;9970;-36.854;174.870;2022-08-06T14:19:00;1.67;;;1.67;;
19643;SDS011;9970;-36.854;174.870;2022-08-06T14:21:34;1.80;;;1.80;;
19643;SDS011;9970;-36.854;174.870;2022-08-06T14:24:07;1.70;;;1.70;;
19643;SDS011;9970;-36.854;174.870;2022-08-06T14:26:41;1.57;;;1.57;;
19643;SDS011;9970;-36.854;174.870;2022-08-06T14:29:15;1.63;;;1.63;;
19643;SDS011;9970;-36.854;174.870;2022-08-06T14:31:50;1.70;;;1.70;;
19643;SDS011;9970;-36.854;174.870;2022-08-06T14:34:24;1.70;;;1.70;;
19643;SDS011;9970;-36.854;174.870;2022-08-06T14:36:58;1.70;;;1.70;;
19643;SDS011;9970;-36.854;174.870;2022-08-06T14:39:32;1.70;;;1.70;;
19643;SDS011;9970;-36.854;174.870;2022-08-06T14:42:06;1.70;;;1.70;;
19643;SDS011;9970;-36.854;174.870;2022-08-06T14:44:57;1.70;;;1.70;;
19643;SDS011;9970;-36.854;174.870;2022-08-06T14:47:32;1.70;;;1.70;;
19643;SDS011;9970;-36.854;174.870;2022-08-06T14:50:06;1.80;;;1.80;;
19643;SDS011;9970;-36.854;174.870;2022-08-06T14:52:39;1.60;;;1.60;;
19643;SDS011;9970;-36.854;174.870;2022-08-06T14:55:14;1.73;;;1.73;;
19643;SDS011;9970;-36.854;174.870;2022-08-06T14:57:48;1.70;;;1.70;;
19643;SDS011;9970;-36.854;174.870;2022-08-06T15:00:22;1.80;;;1.80;;
19643;SDS011;9970;-36.854;174.870;2022-08-06T15:02:57;1.90;;;1.90;;
19643;SDS011;9970;-36.854;174.870;2022-08-06T15:05:34;1.70;;;1.70;;
19643;SDS011;9970;-36.854;174.870;2022-08-06T15:08:08;1.70;;;1.70;;
19643;SDS011;9970;-36.854;174.870;2022-08-06T15:10:42;1.73;;;1.73;;
19643;SDS011;9970;-36.854;174.870;2022-08-06T15:13:15;1.80;;;1.80;;
19643;SDS011;9970;-36.854;174.870;2022-08-06T15:15:49;1.77;;;1.77;;
19643;SDS011;9970;-36.854;174.870;2022-08-06T15:18:22;1.80;;;1.80;;
19643;SDS011;9970;-36.854;174.870;2022-08-06T15:20:56;1.77;;;1.77;;
19643;SDS011;9970;-36.854;174.870;2022-08-06T15:23:30;1.60;;;1.60;;
19643;SDS011;9970;-36.854;174.870;2022-08-06T15:26:04;1.70;;;1.70;;
19643;SDS011;9970;-36.854;174.870;2022-08-06T15:28:38;1.70;;;1.70;;
19643;SDS011;9970;-36.854;174.870;2022-08-06T15:31:12;1.60;;;1.60;;
19643;SDS011;9970;-36.854;174.870;2022-08-06T15:33:46;1.60;;;1.60;;
19643;SDS011;9970;-36.854;174.870;2022-08-06T15:36:19;1.77;;;1.77;;
19643;SDS011;9970;-36.854;174.870;2022-08-06T15:38:54;1.60;;;1.60;;
19643;SDS011;9970;-36.854;174.870;2022-08-06T15:41:28;1.60;;;1.60;;
19643;SDS011;9970;-36.854;174.870;2022-08-06T15:44:01;1.60;;;1.60;;
19643;SDS011;9970;-36.854;174.870;2022-08-06T15:46:35;1.60;;;1.60;;
19643;SDS011;9970;-36.854;174.870;2022-08-06T15:49:10;1.60;;;1.60;;
19643;SDS011;9970;-36.854;174.870;2022-08-06T15:51:45;1.70;;;1.70;;
19643;SDS011;9970;-36.854;174.870;2022-08-06T15:54:24;1.60;;;1.60;;
19643;SDS011;9970;-36.854;174.870;2022-08-06T15:56:58;1.60;;;1.60;;
19643;SDS011;9970;-36.854;174.870;2022-08-06T15:59:31;1.70;;;1.70;;
19643;SDS011;9970;-36.854;174.870;2022-08-06T16:02:05;1.70;;;1.70;;